createdAt,value
2018-01-15T00:02:03.320Z,4.00
2018-01-15T00:04:34.686Z,3.98
2018-01-15T00:07:04.197Z,3.89
2018-01-15T00:09:35.205Z,3.89
2018-01-15T00:12:05.578Z,3.87
2018-01-15T00:14:34.841Z,3.85
2018-01-15T00:17:04.597Z,3.86
2018-01-15T00:19:33.996Z,3.85
2018-01-15T00:22:03.690Z,3.86
2018-01-15T00:24:32.771Z,3.86
2018-01-15T00:27:02.195Z,3.86
2018-01-15T00:29:31.311Z,3.88
2018-01-15T00:32:00.472Z,3.88
2018-01-15T00:34:30.972Z,3.89
2018-01-15T00:37:00.194Z,3.85
2018-01-15T00:39:29.323Z,3.80
2018-01-15T00:41:58.498Z,3.82
2018-01-15T00:44:27.728Z,3.80
2018-01-15T00:46:57.232Z,3.75
2018-01-15T00:49:26.362Z,3.73
2018-01-15T00:51:55.794Z,3.77
2018-01-15T00:54:25.394Z,3.71
2018-01-15T00:56:54.764Z,3.69
2018-01-15T00:59:23.863Z,3.69
2018-01-15T01:01:53.277Z,3.67
2018-01-15T01:04:22.362Z,3.66
2018-01-15T01:06:51.499Z,3.66
2018-01-15T01:09:20.895Z,3.61
2018-01-15T01:11:50.153Z,3.60
2018-01-15T01:14:20.107Z,3.55
2018-01-15T01:16:49.588Z,3.51
2018-01-15T01:19:18.693Z,3.59
2018-01-15T01:21:48.558Z,3.43
2018-01-15T01:24:18.025Z,3.42
2018-01-15T01:26:47.141Z,3.44
2018-01-15T01:29:16.624Z,3.38
2018-01-15T01:31:46.022Z,3.35
2018-01-15T01:34:15.262Z,3.34
2018-01-15T01:36:44.350Z,3.35
2018-01-15T01:39:13.858Z,3.35
2018-01-15T01:41:43.011Z,3.36
2018-01-15T01:44:12.166Z,3.38
2018-01-15T01:46:41.571Z,3.36
2018-01-15T01:49:10.672Z,3.33
2018-01-15T01:51:39.795Z,3.35
2018-01-15T01:54:09.302Z,3.33
2018-01-15T01:56:38.405Z,3.32
2018-01-15T01:59:07.550Z,3.34
2018-01-15T02:01:36.985Z,3.30
2018-01-15T02:04:07.349Z,3.26
2018-01-15T02:06:36.740Z,3.29
2018-01-15T02:09:06.628Z,3.25
2018-01-15T02:11:35.762Z,3.32
2018-01-15T02:14:05.790Z,3.35
2018-01-15T02:16:35.011Z,3.33
2018-01-15T02:19:04.148Z,3.36
2018-01-15T02:21:33.849Z,3.37
2018-01-15T02:24:04.032Z,3.45
2018-01-15T02:26:33.383Z,3.44
2018-01-15T02:29:02.813Z,3.43
2018-01-15T02:31:31.985Z,3.45
2018-01-15T02:34:01.867Z,3.39
2018-01-15T02:36:31.025Z,3.47
2018-01-15T02:39:00.139Z,3.46
2018-01-15T02:41:29.531Z,3.51
2018-01-15T02:43:58.643Z,3.55
2018-01-15T02:46:27.734Z,3.46
2018-01-15T02:48:57.140Z,3.52
2018-01-15T02:51:26.270Z,3.44
2018-01-15T02:53:55.384Z,3.50
2018-01-15T02:56:24.785Z,3.44
2018-01-15T02:58:53.910Z,3.49
2018-01-15T03:01:27.212Z,3.55
2018-01-15T03:03:56.719Z,3.61
2018-01-15T03:06:25.823Z,3.68
2018-01-15T03:08:55.367Z,3.71
2018-01-15T03:11:24.834Z,3.79
2018-01-15T03:13:53.933Z,3.83
2018-01-15T03:16:23.034Z,3.84
2018-01-15T03:18:52.139Z,3.88
2018-01-15T03:21:21.667Z,3.91
2018-01-15T03:23:51.080Z,3.89
2018-01-15T03:26:20.206Z,3.89
2018-01-15T03:28:49.359Z,3.81
2018-01-15T03:31:18.750Z,3.83
2018-01-15T03:33:47.858Z,3.81
2018-01-15T03:36:16.969Z,3.85
2018-01-15T03:38:46.396Z,3.93
2018-01-15T03:41:15.550Z,3.86
2018-01-15T03:43:44.700Z,3.84
2018-01-15T03:46:14.300Z,3.75
2018-01-15T03:48:43.417Z,3.71
2018-01-15T03:51:12.582Z,3.79
2018-01-15T03:53:41.998Z,3.76
2018-01-15T03:56:11.129Z,3.79
2018-01-15T03:58:40.212Z,3.84
2018-01-15T04:01:09.334Z,3.87
2018-01-15T04:03:38.423Z,3.92
2018-01-15T04:06:07.822Z,3.85
2018-01-15T04:08:36.932Z,3.90
2018-01-15T04:11:06.035Z,3.82
2018-01-15T04:13:35.472Z,3.90
2018-01-15T04:16:05.373Z,3.81
2018-01-15T04:18:34.503Z,3.84
2018-01-15T04:21:04.211Z,3.89
2018-01-15T04:23:33.387Z,3.86
2018-01-15T04:26:03.247Z,3.90
2018-01-15T04:28:32.637Z,4.00
2018-01-15T04:31:01.976Z,3.95
2018-01-15T04:33:31.066Z,3.82
2018-01-15T04:36:00.604Z,3.83
2018-01-15T04:38:29.682Z,3.88
2018-01-15T04:41:00.034Z,3.81
2018-01-15T04:43:29.451Z,3.87
2018-01-15T04:45:58.577Z,3.86
2018-01-15T04:48:27.779Z,3.79
2018-01-15T04:50:57.452Z,3.72
2018-01-15T04:53:26.633Z,3.79
2018-01-15T04:55:57.142Z,3.80
2018-01-15T04:58:26.333Z,3.85
2018-01-15T05:00:55.637Z,3.82
2018-01-15T05:03:24.832Z,3.80
2018-01-15T05:05:54.210Z,3.94
2018-01-15T05:08:28.858Z,3.88
2018-01-15T05:10:58.071Z,3.92
2018-01-15T05:13:27.305Z,3.90
2018-01-15T05:15:56.896Z,3.93
2018-01-15T05:18:26.093Z,4.02
2018-01-15T05:20:55.202Z,3.96
2018-01-15T05:23:24.694Z,4.00
2018-01-15T05:25:53.839Z,3.94
2018-01-15T05:28:22.981Z,3.95
2018-01-15T05:30:53.452Z,3.99
2018-01-15T05:33:22.612Z,3.96
2018-01-15T05:35:51.759Z,4.01
2018-01-15T05:38:21.636Z,3.94
2018-01-15T05:40:51.246Z,3.90
2018-01-15T05:43:20.402Z,3.84
2018-01-15T05:45:51.692Z,3.78
2018-01-15T05:48:21.012Z,3.73
2018-01-15T05:50:51.137Z,3.58
2018-01-15T05:53:20.604Z,3.54
2018-01-15T05:55:49.926Z,3.51
2018-01-15T05:58:19.115Z,3.41
2018-01-15T06:00:50.885Z,3.40
2018-01-15T06:03:20.079Z,3.37
2018-01-15T06:05:49.360Z,3.36
2018-01-15T06:08:18.474Z,3.30
2018-01-15T06:10:47.674Z,3.23
2018-01-15T06:13:17.766Z,3.25
2018-01-15T06:15:46.967Z,3.18
2018-01-15T06:18:16.141Z,3.15
2018-01-15T06:20:46.605Z,3.18
2018-01-15T06:23:15.999Z,3.16
2018-01-15T06:25:45.176Z,3.13
2018-01-15T06:28:14.763Z,3.09
2018-01-15T06:30:44.105Z,3.01
2018-01-15T06:33:13.352Z,3.05
2018-01-15T06:35:42.531Z,3.16
2018-01-15T06:38:11.830Z,3.21
2018-01-15T06:40:41.261Z,3.22
2018-01-15T06:43:10.379Z,3.24
2018-01-15T06:45:39.656Z,3.19
2018-01-15T06:48:09.558Z,3.23
2018-01-15T06:50:38.730Z,3.35
2018-01-15T06:53:08.152Z,3.37
2018-01-15T06:55:37.306Z,3.33
2018-01-15T06:58:06.602Z,3.34
2018-01-15T07:00:35.757Z,3.37
2018-01-15T07:03:05.183Z,3.40
2018-01-15T07:05:34.358Z,3.47
2018-01-15T07:08:04.730Z,3.50
2018-01-15T07:10:33.885Z,3.49
2018-01-15T07:13:04.263Z,3.43
2018-01-15T07:15:33.730Z,3.50
2018-01-15T07:18:04.195Z,3.56
2018-01-15T07:20:33.411Z,3.59
2018-01-15T07:23:03.138Z,3.63
2018-01-15T07:25:32.259Z,3.63
2018-01-15T07:28:01.798Z,3.63
2018-01-15T07:30:31.250Z,3.66
2018-01-15T07:33:02.051Z,3.69
2018-01-15T07:35:31.200Z,3.73
2018-01-15T07:38:02.866Z,3.83
2018-01-15T07:40:32.114Z,3.83
2018-01-15T07:43:02.100Z,3.85
2018-01-15T07:45:31.552Z,3.93
2018-01-15T07:48:01.060Z,4.04
2018-01-15T07:50:30.219Z,4.07
2018-01-15T07:52:59.340Z,4.00
2018-01-15T07:55:28.503Z,4.12
2018-01-15T07:57:58.857Z,4.28
2018-01-15T08:00:27.951Z,4.24
2018-01-15T08:02:57.081Z,4.19
2018-01-15T08:05:26.596Z,4.18
2018-01-15T08:07:55.716Z,4.21
2018-01-15T08:10:24.896Z,4.30
2018-01-15T08:12:54.301Z,4.51
2018-01-15T08:15:23.493Z,4.48
2018-01-15T08:17:53.538Z,4.32
2018-01-15T08:20:22.934Z,4.22
2018-01-15T08:22:52.057Z,4.28
2018-01-15T08:25:21.510Z,4.17
2018-01-15T08:27:50.714Z,4.13
2018-01-15T08:30:19.815Z,4.11
2018-01-15T08:32:49.053Z,4.18
2018-01-15T08:35:18.198Z,4.11
2018-01-15T08:37:47.657Z,4.09
2018-01-15T08:40:17.338Z,4.08
2018-01-15T08:42:46.455Z,4.11
2018-01-15T08:45:15.595Z,4.09
2018-01-15T08:47:44.758Z,4.18
2018-01-15T08:50:14.238Z,4.09
2018-01-15T08:52:43.368Z,4.11
2018-01-15T08:55:12.555Z,4.16
2018-01-15T08:57:42.063Z,4.14
2018-01-15T09:00:11.303Z,4.25
2018-01-15T09:02:40.477Z,4.25
2018-01-15T09:05:11.397Z,4.25
2018-01-15T09:07:40.703Z,4.30
2018-01-15T09:10:09.895Z,4.25
2018-01-15T09:12:39.377Z,4.31
2018-01-15T09:15:08.508Z,4.31
2018-01-15T09:17:38.564Z,4.37
2018-01-15T09:20:07.993Z,4.35
2018-01-15T09:22:37.138Z,4.34
2018-01-15T09:25:06.266Z,4.34
2018-01-15T09:27:35.720Z,4.37
2018-01-15T09:30:06.669Z,4.34
2018-01-15T09:32:35.792Z,4.41
2018-01-15T09:35:05.510Z,4.38
2018-01-15T09:37:34.630Z,4.29
2018-01-15T09:40:05.561Z,4.38
2018-01-15T09:42:34.982Z,4.34
2018-01-15T09:45:05.005Z,4.34
2018-01-15T09:47:34.148Z,4.23
2018-01-15T09:50:04.470Z,4.16
2018-01-15T09:52:33.694Z,4.13
2018-01-15T09:55:04.147Z,4.19
2018-01-15T09:57:33.578Z,4.23
2018-01-15T10:00:04.680Z,4.27
2018-01-15T10:02:33.816Z,4.29
2018-01-15T10:05:03.907Z,4.47
2018-01-15T10:07:33.075Z,4.46
2018-01-15T10:10:03.991Z,4.48
2018-01-15T10:12:33.410Z,4.57
2018-01-15T10:15:02.847Z,4.55
2018-01-15T10:17:31.977Z,4.65
2018-01-15T10:20:02.791Z,4.48
2018-01-15T10:22:31.945Z,4.49
2018-01-15T10:25:01.467Z,4.42
2018-01-15T10:27:30.892Z,4.38
2018-01-15T10:30:00.085Z,4.38
2018-01-15T10:32:29.226Z,4.29
2018-01-15T10:34:58.687Z,4.39
2018-01-15T10:37:27.859Z,4.47
2018-01-15T10:39:57.003Z,4.45
2018-01-15T10:42:26.552Z,4.54
2018-01-15T10:44:55.675Z,4.62
2018-01-15T10:47:24.846Z,4.71
2018-01-15T10:49:54.466Z,4.76
2018-01-15T10:52:23.628Z,4.69
2018-01-15T10:54:52.848Z,4.52
2018-01-15T10:57:22.350Z,4.53
2018-01-15T10:59:52.945Z,4.53
2018-01-15T11:02:22.066Z,4.65
2018-01-15T11:04:51.636Z,4.71
2018-01-15T11:07:20.783Z,5.00
2018-01-15T11:09:50.694Z,5.21
2018-01-15T11:12:20.115Z,5.34
2018-01-15T11:14:49.358Z,5.42
2018-01-15T11:17:18.678Z,5.33
2018-01-15T11:19:48.346Z,5.24
2018-01-15T11:22:17.504Z,5.14
2018-01-15T11:24:46.651Z,5.12
2018-01-15T11:27:16.063Z,5.13
2018-01-15T11:29:45.188Z,5.15
2018-01-15T11:32:14.314Z,5.10
2018-01-15T11:34:43.740Z,5.11
2018-01-15T11:37:12.927Z,5.19
2018-01-15T11:39:42.118Z,5.14
2018-01-15T11:42:11.278Z,5.11
2018-01-15T11:44:40.570Z,5.06
2018-01-15T11:47:09.774Z,5.14
2018-01-15T11:49:39.177Z,5.23
2018-01-15T11:52:08.446Z,5.28
2018-01-15T11:54:37.569Z,5.48
2018-01-15T11:57:07.017Z,5.69
2018-01-15T11:59:36.214Z,5.78
2018-01-15T12:02:06.387Z,5.65
2018-01-15T12:04:35.825Z,5.64
2018-01-15T12:07:05.466Z,5.75
2018-01-15T12:09:34.596Z,5.66
2018-01-15T12:12:04.945Z,5.73
2018-01-15T12:14:34.083Z,5.67
2018-01-15T12:17:03.454Z,5.76
2018-01-15T12:19:32.940Z,5.79
2018-01-15T12:22:02.805Z,5.76
2018-01-15T12:24:31.988Z,5.81
2018-01-15T12:27:04.039Z,5.84
2018-01-15T12:29:33.188Z,6.00
2018-01-15T12:32:03.148Z,6.04
2018-01-15T12:34:32.638Z,6.05
2018-01-15T12:37:02.118Z,5.86
2018-01-15T12:39:31.358Z,5.82
2018-01-15T12:42:02.471Z,5.99
2018-01-15T12:44:31.585Z,5.90
2018-01-15T12:47:01.956Z,5.78
2018-01-15T12:49:31.167Z,5.74
2018-01-15T12:52:00.306Z,5.80
2018-01-15T12:54:29.452Z,5.81
2018-01-15T12:57:00.176Z,5.73
2018-01-15T12:59:29.715Z,5.72
2018-01-15T13:01:59.706Z,5.76
2018-01-15T13:04:28.903Z,5.66
2018-01-15T13:06:58.951Z,5.68
2018-01-15T13:09:28.108Z,5.67
2018-01-15T13:11:57.570Z,5.66
2018-01-15T13:14:26.770Z,5.63
2018-01-15T13:16:56.987Z,5.73
2018-01-15T13:19:26.539Z,5.78
2018-01-15T13:21:55.714Z,5.83
2018-01-15T13:24:24.877Z,5.84
2018-01-15T13:26:55.357Z,5.87
2018-01-15T13:29:24.568Z,5.83
2018-01-15T13:31:53.708Z,5.83
2018-01-15T13:34:23.125Z,5.89
2018-01-15T13:36:52.285Z,5.94
2018-01-15T13:39:21.414Z,5.94
2018-01-15T13:41:51.950Z,5.90
2018-01-15T13:44:21.067Z,5.95
2018-01-15T13:46:51.679Z,5.98
2018-01-15T13:49:21.251Z,6.01
2018-01-15T13:51:52.221Z,6.02
2018-01-15T13:54:21.426Z,5.94
2018-01-15T13:56:52.020Z,5.97
2018-01-15T13:59:21.190Z,5.95
2018-01-15T14:01:52.050Z,5.98
2018-01-15T14:04:22.139Z,5.99
2018-01-15T14:06:51.710Z,6.08
2018-01-15T14:09:21.270Z,6.09
2018-01-15T14:11:50.997Z,6.15
2018-01-15T14:14:20.417Z,6.18
2018-01-15T14:16:50.759Z,6.24
2018-01-15T14:19:21.772Z,6.24
2018-01-15T14:21:51.819Z,6.25
2018-01-15T14:24:21.556Z,6.26
2018-01-15T14:26:51.750Z,6.33
2018-01-15T14:29:21.234Z,6.28
2018-01-15T14:31:50.864Z,6.36
2018-01-15T14:34:20.474Z,6.38
2018-01-15T14:36:49.792Z,6.47
2018-01-15T14:39:19.847Z,6.52
2018-01-15T14:41:49.835Z,6.36
2018-01-15T14:44:19.231Z,6.44
2018-01-15T14:46:48.941Z,6.46
2018-01-15T14:49:18.664Z,6.38
2018-01-15T14:51:48.094Z,6.38
2018-01-15T14:54:18.160Z,6.37
2018-01-15T14:56:47.604Z,6.37
2018-01-15T14:59:16.960Z,6.38
2018-01-15T15:01:46.502Z,6.37
2018-01-15T15:04:16.045Z,6.48
2018-01-15T15:06:45.165Z,6.51
2018-01-15T15:09:14.636Z,6.48
2018-01-15T15:11:43.995Z,6.43
2018-01-15T15:14:13.117Z,6.41
2018-01-15T15:16:44.274Z,6.45
2018-01-15T15:19:14.778Z,6.51
2018-01-15T15:21:44.581Z,6.59
2018-01-15T15:24:14.912Z,6.57
2018-01-15T15:26:44.729Z,6.57
2018-01-15T15:29:14.535Z,6.58
2018-01-15T15:31:44.769Z,6.56
2018-01-15T15:34:15.433Z,6.53
2018-01-15T15:36:45.421Z,6.57
2018-01-15T15:39:15.612Z,6.63
2018-01-15T15:41:45.611Z,6.58
2018-01-15T15:44:15.281Z,6.64
2018-01-15T15:46:44.941Z,6.65
2018-01-15T15:49:14.902Z,6.63
2018-01-15T15:51:44.347Z,6.63
2018-01-15T15:54:15.782Z,6.62
2018-01-15T15:56:46.394Z,6.67
2018-01-15T15:59:17.068Z,6.65
2018-01-15T16:01:46.323Z,6.59
2018-01-15T16:04:15.727Z,6.46
2018-01-15T16:06:45.206Z,6.48
2018-01-15T16:09:14.587Z,6.47
2018-01-15T16:11:43.741Z,6.42
2018-01-15T16:14:13.194Z,6.40
2018-01-15T16:16:42.512Z,6.39
2018-01-15T16:19:12.788Z,6.37
2018-01-15T16:21:43.280Z,6.47
2018-01-15T16:24:13.222Z,6.48
2018-01-15T16:26:42.376Z,6.51
2018-01-15T16:29:11.875Z,6.45
2018-01-15T16:31:41.124Z,6.50
2018-01-15T16:34:10.348Z,6.56
2018-01-15T16:36:39.559Z,6.58
2018-01-15T16:39:08.733Z,6.60
2018-01-15T16:41:38.334Z,6.59
2018-01-15T16:44:08.791Z,6.55
2018-01-15T16:46:38.399Z,6.65
2018-01-15T16:49:08.063Z,6.71
2018-01-15T16:51:37.633Z,6.74
2018-01-15T16:54:07.116Z,6.77
2018-01-15T16:56:36.355Z,6.82
2018-01-15T16:59:06.240Z,6.89
2018-01-15T17:01:35.878Z,6.86
2018-01-15T17:04:06.774Z,6.95
2018-01-15T17:06:36.151Z,6.97
2018-01-15T17:09:05.747Z,6.99
2018-01-15T17:11:35.019Z,6.93
2018-01-15T17:14:05.332Z,6.92
2018-01-15T17:16:34.592Z,6.94
2018-01-15T17:19:05.094Z,6.93
2018-01-15T17:21:36.752Z,6.99
2018-01-15T17:24:06.870Z,7.10
2018-01-15T17:26:35.996Z,6.99
2018-01-15T17:29:05.532Z,7.04
2018-01-15T17:31:34.853Z,7.08
2018-01-15T17:34:05.548Z,7.06
2018-01-15T17:36:34.858Z,6.96
2018-01-15T17:39:05.828Z,6.97
2018-01-15T17:41:35.150Z,6.90
2018-01-15T17:44:06.825Z,6.92
2018-01-15T17:46:37.305Z,7.01
2018-01-15T17:49:06.659Z,7.04
2018-01-15T17:51:36.193Z,6.98
2018-01-15T17:54:06.249Z,6.90
2018-01-15T17:56:35.531Z,6.87
2018-01-15T17:59:05.101Z,6.97
2018-01-15T18:01:35.105Z,6.99
2018-01-15T18:04:05.286Z,6.94
2018-01-15T18:06:34.569Z,7.07
2018-01-15T18:09:05.506Z,7.09
2018-01-15T18:11:34.862Z,7.13
2018-01-15T18:14:07.382Z,7.22
2018-01-15T18:16:37.357Z,7.16
2018-01-15T18:19:06.716Z,7.18
2018-01-15T18:21:36.282Z,7.23
2018-01-15T18:24:11.824Z,7.19
2018-01-15T18:26:45.438Z,7.26
2018-01-15T18:29:14.927Z,7.26
2018-01-15T18:31:44.092Z,7.27
2018-01-15T18:34:16.935Z,7.28
2018-01-15T18:36:46.782Z,7.25
2018-01-15T18:39:16.005Z,7.25
2018-01-15T18:41:45.182Z,7.17
2018-01-15T18:44:15.856Z,7.18
2018-01-15T18:46:45.034Z,7.15
2018-01-15T18:49:14.727Z,7.19
2018-01-15T18:51:44.256Z,7.15
2018-01-15T18:54:19.068Z,7.17
2018-01-15T18:56:54.958Z,7.15
2018-01-15T18:59:31.433Z,7.08
2018-01-15T19:02:08.684Z,7.00
2018-01-15T19:04:38.307Z,7.00
2018-01-15T19:07:07.504Z,7.04
2018-01-15T19:09:36.631Z,6.98
2018-01-15T19:12:06.248Z,7.00
2018-01-15T19:14:35.680Z,6.98
2018-01-15T19:17:05.277Z,6.98
2018-01-15T19:19:34.417Z,6.95
2018-01-15T19:22:07.287Z,6.92
2018-01-15T19:24:36.471Z,6.99
2018-01-15T19:27:05.857Z,6.98
2018-01-15T19:29:35.122Z,7.01
2018-01-15T19:32:06.068Z,7.06
2018-01-15T19:34:35.383Z,7.08
2018-01-15T19:37:06.317Z,7.11
2018-01-15T19:39:35.563Z,7.07
2018-01-15T19:42:05.552Z,7.12
2018-01-15T19:44:39.066Z,7.17
2018-01-15T19:47:13.267Z,7.19
2018-01-15T19:50:49.778Z,7.19
2018-01-15T19:55:25.481Z,7.13
2018-01-15T19:57:59.617Z,7.23
2018-01-15T20:02:39.226Z,7.18
2018-01-15T20:05:13.653Z,7.19
2018-01-15T20:07:47.715Z,7.23
2018-01-15T20:10:52.241Z,7.18
2018-01-15T20:13:21.654Z,7.20
2018-01-15T20:15:51.299Z,7.23
2018-01-15T20:18:20.458Z,7.23
2018-01-15T20:20:49.677Z,7.24
2018-01-15T20:23:18.936Z,7.20
2018-01-15T20:25:48.024Z,7.20
2018-01-15T20:28:17.201Z,7.16
2018-01-15T20:30:46.607Z,7.16
2018-01-15T20:33:16.295Z,7.23
2018-01-15T20:35:45.427Z,7.25
2018-01-15T20:38:15.135Z,7.24
2018-01-15T20:40:44.375Z,7.25
2018-01-15T20:43:13.606Z,7.29
2018-01-15T20:45:43.081Z,7.28
2018-01-15T20:48:12.190Z,7.32
2018-01-15T20:50:51.383Z,7.26
2018-01-15T20:53:21.277Z,7.31
2018-01-15T20:55:50.457Z,7.31
2018-01-15T20:58:19.601Z,7.31
2018-01-15T21:00:49.735Z,7.31
2018-01-15T21:03:18.867Z,7.36
2018-01-15T21:05:48.174Z,7.37
2018-01-15T21:08:17.870Z,7.36
2018-01-15T21:10:47.077Z,7.35
2018-01-15T21:13:17.308Z,7.34
2018-01-15T21:15:46.448Z,7.35
2018-01-15T21:18:15.602Z,7.38
2018-01-15T21:20:44.691Z,7.38
2018-01-15T21:23:14.167Z,7.39
2018-01-15T21:25:43.379Z,7.42
2018-01-15T21:28:12.672Z,7.40
2018-01-15T21:30:42.495Z,7.42
2018-01-15T21:33:12.049Z,7.37
2018-01-15T21:36:00.201Z,7.37
2018-01-15T21:38:32.514Z,7.38
2018-01-15T21:41:02.525Z,7.43
2018-01-15T21:43:37.645Z,7.34
2018-01-15T21:46:07.288Z,7.36
2018-01-15T21:48:37.902Z,7.34
2018-01-15T21:51:16.294Z,7.37
2018-01-15T21:53:45.530Z,7.36
2018-01-15T21:56:22.283Z,7.33
2018-01-15T21:58:51.797Z,7.31
2018-01-15T22:01:27.313Z,7.31
2018-01-15T22:03:59.794Z,7.31
2018-01-15T22:06:30.532Z,7.37
2018-01-15T22:09:07.229Z,7.36
2018-01-15T22:11:42.473Z,7.38
2018-01-15T22:14:17.978Z,7.35
2018-01-15T22:16:47.180Z,7.33
2018-01-15T22:19:18.880Z,7.31
2018-01-15T22:21:48.142Z,7.34
2018-01-15T22:24:17.281Z,7.54
2018-01-15T22:26:46.915Z,7.98
2018-01-15T22:29:16.055Z,8.29
2018-01-15T22:31:45.205Z,7.93
2018-01-15T22:34:14.724Z,7.75
2018-01-15T22:36:43.935Z,7.77
2018-01-15T22:39:13.107Z,7.72
2018-01-15T22:41:42.770Z,7.73
2018-01-15T22:44:12.026Z,7.65
2018-01-15T22:46:41.199Z,7.69
2018-01-15T22:49:10.919Z,7.61
2018-01-15T22:51:40.178Z,7.64
2018-01-15T22:54:09.425Z,7.62
2018-01-15T22:56:38.842Z,7.69
2018-01-15T22:59:08.798Z,7.65
2018-01-15T23:01:37.936Z,7.73
2018-01-15T23:04:07.362Z,7.68
2018-01-15T23:06:36.510Z,7.67
2018-01-15T23:09:06.000Z,7.70
2018-01-15T23:11:35.167Z,7.70
2018-01-15T23:14:05.259Z,7.67
2018-01-15T23:16:34.395Z,7.71
2018-01-15T23:19:04.654Z,7.72
2018-01-15T23:21:33.896Z,7.71
2018-01-15T23:24:04.930Z,7.72
2018-01-15T23:30:06.169Z,7.79
2018-01-15T23:32:35.577Z,7.80
2018-01-15T23:35:05.061Z,7.75
2018-01-15T23:37:34.200Z,7.74
2018-01-15T23:40:04.976Z,7.69
2018-01-15T23:42:35.249Z,7.73
2018-01-15T23:45:05.278Z,7.78
2018-01-15T23:47:35.927Z,7.77
2018-01-15T23:50:06.740Z,7.84
2018-01-15T23:52:37.105Z,7.82
2018-01-15T23:55:08.071Z,7.81
2018-01-15T23:57:38.605Z,7.86
